Hlavní strana
METAR-TAF:

METAR-TAF

Letiště :

Salem-Leckrone Airport

Salem, Illinois, Spojené státy americké

zeměpisná šířka: 38-38-34N, zeměpisná délka: 088-57-51W, výška: 175 m

Aktuální stav počasí

Zpráva byla vytvořena před 12 minutami, v 00:55 UTC
Jihovýchodní vítr 3 kt
Teplota 4°C
Vlhkost vzduchu 75%
Tlak 1025 hPa
Viditelnost: 16.1 km
Jasno

METAR: KSLO 080055Z AUTO 13003KT 10SM CLR 04/00 A3026 RMK AO2 T00370004

Čas: 19:07 (01:07 UTC)


TAF: chybějící

Stav a předpovědi počasí z více než 4 000 letišť (zprávy METAR a TAF).

Červené a žluté tečky na mapě představují dostupné meteorologické stanice.

Když kurzor umístíte na tečku, zobrazí se název stanice.

Pak kliknutím zobrazíte stav a předpověď počasí.

Chcete-li změnit mapu, kliknutím na zelené tlačítko se znaménkem +mapu přiblížíte, kliknutím na zelené tlačítko se znaménkem – mapu oddálíte a kliknutím na zelené šipky přejdete na sousední mapy.


METAR-TAF: